Vinnytsia, Ukraine
Current Conditions -  °F | °C
As of 9:30 PM on Tuesday 27 Jan 2015 (Local Time) from LUBL Reporting Station
NA  
Wind Chill: 24°   Ceiling: NA
Heat Index: 30°   Visibility: 2.4mi
Dew Point: 30°   Wind: 6mph
Humidity: 100%   Direction: 100°E
Pressure: 30"   Gusts: NA
Location:  49.23°N, 28.5°E
Report Text: LUBL 271830Z AUTO 10005KT 3900 ///016 M01/M01 Q1016
Loading
Personal Weather Stations






























Interactive Weather Map New forecast layout! Learn more

10-Day Weather Forecast

Advertisements
Track Severe Weather on mobile